sensor_id;sensor_type;location;lat;lon;timestamp;pressure;altitude;pressure_sealevel;temperature;humidity
21779;BME280;11050;52.222;20.916;2024-01-30T00:01:55;101912.28;;;1.71;100.00
21779;BME280;11050;52.222;20.916;2024-01-30T00:04:21;101903.31;;;1.71;100.00
21779;BME280;11050;52.222;20.916;2024-01-30T00:06:47;101912.59;;;1.68;100.00
21779;BME280;11050;52.222;20.916;2024-01-30T00:09:13;101903.06;;;1.64;100.00
21779;BME280;11050;52.222;20.916;2024-01-30T00:11:39;101908.66;;;1.63;100.00
21779;BME280;11050;52.222;20.916;2024-01-30T00:14:05;101891.53;;;1.62;100.00
21779;BME280;11050;52.222;20.916;2024-01-30T00:16:32;101886.44;;;1.59;100.00
21779;BME280;11050;52.222;20.916;2024-01-30T00:18:58;101884.88;;;1.57;100.00
21779;BME280;11050;52.222;20.916;2024-01-30T00:21:25;101891.63;;;1.53;100.00
21779;BME280;11050;52.222;20.916;2024-01-30T00:23:50;101878.41;;;1.50;100.00
21779;BME280;11050;52.222;20.916;2024-01-30T00:26:16;101887.94;;;1.54;100.00
21779;BME280;11050;52.222;20.916;2024-01-30T00:28:42;101894.34;;;1.53;100.00
21779;BME280;11050;52.222;20.916;2024-01-30T00:31:09;101891.09;;;1.49;100.00
21779;BME280;11050;52.222;20.916;2024-01-30T00:33:39;101881.56;;;1.45;100.00
21779;BME280;11050;52.222;20.916;2024-01-30T00:36:06;101882.59;;;1.44;100.00
21779;BME280;11050;52.222;20.916;2024-01-30T00:38:32;101874.22;;;1.38;100.00
21779;BME280;11050;52.222;20.916;2024-01-30T00:40:58;101884.28;;;1.45;100.00
21779;BME280;11050;52.222;20.916;2024-01-30T00:43:24;101890.41;;;1.47;100.00
21779;BME280;11050;52.222;20.916;2024-01-30T00:45:53;101894.28;;;1.45;100.00
21779;BME280;11050;52.222;20.916;2024-01-30T00:48:19;101900.84;;;1.42;100.00
21779;BME280;11050;52.222;20.916;2024-01-30T00:50:45;101889.66;;;1.37;100.00
21779;BME280;11050;52.222;20.916;2024-01-30T00:53:11;101890.63;;;1.36;100.00
21779;BME280;11050;52.222;20.916;2024-01-30T00:55:37;101879.44;;;1.31;100.00
21779;BME280;11050;52.222;20.916;2024-01-30T00:58:03;101892.03;;;1.40;100.00
21779;BME280;11050;52.222;20.916;2024-01-30T01:00:29;101881.19;;;1.40;100.00
21779;BME280;11050;52.222;20.916;2024-01-30T01:02:55;101871.84;;;1.35;100.00
21779;BME280;11050;52.222;20.916;2024-01-30T01:05:21;101888.88;;;1.45;100.00
21779;BME280;11050;52.222;20.916;2024-01-30T01:07:47;101889.16;;;1.42;100.00
21779;BME280;11050;52.222;20.916;2024-01-30T01:10:14;101893.75;;;1.41;100.00
21779;BME280;11050;52.222;20.916;2024-01-30T01:12:41;101890.03;;;1.42;100.00
21779;BME280;11050;52.222;20.916;2024-01-30T01:15:08;101896.75;;;1.38;100.00
21779;BME280;11050;52.222;20.916;2024-01-30T01:17:38;101892.03;;;1.40;100.00
21779;BME280;11050;52.222;20.916;2024-01-30T01:20:07;101887.78;;;1.38;100.00
21779;BME280;11050;52.222;20.916;2024-01-30T01:22:34;101884.41;;;1.36;100.00
21779;BME280;11050;52.222;20.916;2024-01-30T01:25:00;101885.53;;;1.33;100.00
21779;BME280;11050;52.222;20.916;2024-01-30T01:27:27;101881.97;;;1.33;100.00
21779;BME280;11050;52.222;20.916;2024-01-30T01:29:53;101885.22;;;1.36;100.00
21779;BME280;11050;52.222;20.916;2024-01-30T01:32:19;101882.50;;;1.36;100.00
21779;BME280;11050;52.222;20.916;2024-01-30T01:34:45;101875.88;;;1.31;100.00
21779;BME280;11050;52.222;20.916;2024-01-30T01:37:10;101870.25;;;1.24;100.00
21779;BME280;11050;52.222;20.916;2024-01-30T01:39:36;101878.41;;;1.32;100.00
21779;BME280;11050;52.222;20.916;2024-01-30T01:42:02;101869.28;;;1.33;100.00
21779;BME280;11050;52.222;20.916;2024-01-30T01:44:28;101857.94;;;1.30;100.00
21779;BME280;11050;52.222;20.916;2024-01-30T01:46:55;101862.31;;;1.31;100.00
21779;BME280;11050;52.222;20.916;2024-01-30T01:49:25;101865.56;;;1.34;100.00
21779;BME280;11050;52.222;20.916;2024-01-30T01:51:54;101858.13;;;1.36;100.00
21779;BME280;11050;52.222;20.916;2024-01-30T01:54:23;101859.16;;;1.35;100.00
21779;BME280;11050;52.222;20.916;2024-01-30T01:56:51;101853.34;;;1.30;100.00
21779;BME280;11050;52.222;20.916;2024-01-30T01:59:19;101847.94;;;1.30;100.00
21779;BME280;11050;52.222;20.916;2024-01-30T02:01:46;101847.94;;;1.30;100.00
21779;BME280;11050;52.222;20.916;2024-01-30T02:04:15;101850.34;;;1.33;100.00
21779;BME280;11050;52.222;20.916;2024-01-30T02:06:43;101841.84;;;1.28;100.00
21779;BME280;11050;52.222;20.916;2024-01-30T02:09:09;101844.22;;;1.31;100.00
21779;BME280;11050;52.222;20.916;2024-01-30T02:11:35;101843.53;;;1.29;100.00
21779;BME280;11050;52.222;20.916;2024-01-30T02:14:05;101839.66;;;1.32;100.00
21779;BME280;11050;52.222;20.916;2024-01-30T02:16:31;101834.94;;;1.34;100.00
21779;BME280;11050;52.222;20.916;2024-01-30T02:18:57;101829.84;;;1.31;100.00
21779;BME280;11050;52.222;20.916;2024-01-30T02:21:23;101833.56;;;1.30;100.00
21779;BME280;11050;52.222;20.916;2024-01-30T02:23:52;101832.53;;;1.31;100.00
21779;BME280;11050;52.222;20.916;2024-01-30T02:26:18;101841.53;;;1.31;100.00
21779;BME280;11050;52.222;20.916;2024-01-30T02:28:43;101839.81;;;1.30;100.00
21779;BME280;11050;52.222;20.916;2024-01-30T02:31:09;101831.69;;;1.30;100.00
21779;BME280;11050;52.222;20.916;2024-01-30T02:33:35;101840.81;;;1.29;100.00
21779;BME280;11050;52.222;20.916;2024-01-30T02:36:00;101839.81;;;1.30;100.00
21779;BME280;11050;52.222;20.916;2024-01-30T02:38:26;101836.56;;;1.27;100.00
21779;BME280;11050;52.222;20.916;2024-01-30T02:40:52;101843.84;;;1.26;100.00
21779;BME280;11050;52.222;20.916;2024-01-30T02:43:18;101846.56;;;1.26;100.00
21779;BME280;11050;52.222;20.916;2024-01-30T02:45:44;101840.28;;;1.26;100.00
21779;BME280;11050;52.222;20.916;2024-01-30T02:48:10;101851.41;;;1.23;100.00
21779;BME280;11050;52.222;20.916;2024-01-30T02:50:36;101848.88;;;1.21;100.00
21779;BME280;11050;52.222;20.916;2024-01-30T02:53:01;101849.72;;;1.22;100.00
21779;BME280;11050;52.222;20.916;2024-01-30T02:55:27;101846.84;;;1.23;100.00
21779;BME280;11050;52.222;20.916;2024-01-30T02:57:53;101848.88;;;1.21;100.00
21779;BME280;11050;52.222;20.916;2024-01-30T03:00:19;101842.91;;;1.18;100.00
21779;BME280;11050;52.222;20.916;2024-01-30T03:02:45;101838.19;;;1.20;100.00
21779;BME280;11050;52.222;20.916;2024-01-30T03:05:11;101839.06;;;1.20;100.00
21779;BME280;11050;52.222;20.916;2024-01-30T03:07:37;101843.28;;;1.23;100.00
21779;BME280;11050;52.222;20.916;2024-01-30T03:10:05;101835.31;;;1.21;100.00
21779;BME280;11050;52.222;20.916;2024-01-30T03:12:32;101841.75;;;1.20;100.00
21779;BME280;11050;52.222;20.916;2024-01-30T03:14:58;101841.06;;;1.18;100.00
21779;BME280;11050;52.222;20.916;2024-01-30T03:17:23;101846.31;;;1.20;100.00
21779;BME280;11050;52.222;20.916;2024-01-30T03:19:50;101836.50;;;1.19;100.00
21779;BME280;11050;52.222;20.916;2024-01-30T03:22:16;101843.78;;;1.18;100.00
21779;BME280;11050;52.222;20.916;2024-01-30T03:24:41;101845.63;;;1.18;100.00
21779;BME280;11050;52.222;20.916;2024-01-30T03:27:08;101843.09;;;1.16;100.00
21779;BME280;11050;52.222;20.916;2024-01-30T03:29:34;101839.22;;;1.19;100.00
21779;BME280;11050;52.222;20.916;2024-01-30T03:32:00;101843.78;;;1.18;100.00
21779;BME280;11050;52.222;20.916;2024-01-30T03:34:25;101838.38;;;1.18;100.00
21779;BME280;11050;52.222;20.916;2024-01-30T03:36:51;101834.97;;;1.16;100.00
21779;BME280;11050;52.222;20.916;2024-01-30T03:39:17;101838.38;;;1.18;100.00
21779;BME280;11050;52.222;20.916;2024-01-30T03:41:43;101834.09;;;1.16;100.00
21779;BME280;11050;52.222;20.916;2024-01-30T03:44:10;101827.16;;;1.13;100.00
21779;BME280;11050;52.222;20.916;2024-01-30T03:46:36;101830.69;;;1.14;100.00
21779;BME280;11050;52.222;20.916;2024-01-30T03:49:02;101831.31;;;1.08;100.00
21779;BME280;11050;52.222;20.916;2024-01-30T03:51:28;101825.59;;;1.11;100.00
21779;BME280;11050;52.222;20.916;2024-01-30T03:53:53;101824.91;;;1.09;100.00
21779;BME280;11050;52.222;20.916;2024-01-30T03:56:19;101823.88;;;1.10;100.00
21779;BME280;11050;52.222;20.916;2024-01-30T03:58:45;101817.66;;;1.09;100.00
21779;BME280;11050;52.222;20.916;2024-01-30T04:01:14;101821.66;;;1.05;100.00
21779;BME280;11050;52.222;20.916;2024-01-30T04:03:40;101829.09;;;1.03;100.00
21779;BME280;11050;52.222;20.916;2024-01-30T04:06:06;101826.22;;;1.05;100.00
21779;BME280;11050;52.222;20.916;2024-01-30T04:08:32;101824.38;;;1.05;100.00
21779;BME280;11050;52.222;20.916;2024-01-30T04:10:58;101819.41;;;1.01;100.00
21779;BME280;11050;52.222;20.916;2024-01-30T04:13:23;101820.97;;;1.03;100.00
21779;BME280;11050;52.222;20.916;2024-01-30T04:15:49;101820.97;;;1.03;100.00
21779;BME280;11050;52.222;20.916;2024-01-30T04:18:15;101815.56;;;1.03;100.00
21779;BME280;11050;52.222;20.916;2024-01-30T04:20:41;101820.59;;;0.98;100.00
21779;BME280;11050;52.222;20.916;2024-01-30T04:23:06;101826.84;;;0.98;100.00
21779;BME280;11050;52.222;20.916;2024-01-30T04:25:32;101825.84;;;1.00;100.00
21779;BME280;11050;52.222;20.916;2024-01-30T04:27:58;101826.66;;;1.00;100.00
21779;BME280;11050;52.222;20.916;2024-01-30T04:30:23;101827.38;;;1.02;100.00
21779;BME280;11050;52.222;20.916;2024-01-30T04:32:49;101826.66;;;1.00;100.00
21779;BME280;11050;52.222;20.916;2024-01-30T04:35:15;101830.25;;;1.01;100.00
21779;BME280;11050;52.222;20.916;2024-01-30T04:37:41;101830.41;;;0.99;100.00
21779;BME280;11050;52.222;20.916;2024-01-30T04:40:07;101829.09;;;1.03;100.00
21779;BME280;11050;52.222;20.916;2024-01-30T04:42:33;101824.81;;;1.01;100.00
21779;BME280;11050;52.222;20.916;2024-01-30T04:44:59;101829.25;;;1.02;100.00
21779;BME280;11050;52.222;20.916;2024-01-30T04:47:25;101824.81;;;1.01;100.00
21779;BME280;11050;52.222;20.916;2024-01-30T04:49:51;101822.44;;;0.98;100.00
21779;BME280;11050;52.222;20.916;2024-01-30T04:52:17;101824.44;;;0.95;100.00
21779;BME280;11050;52.222;20.916;2024-01-30T04:54:43;101821.75;;;0.95;100.00
21779;BME280;11050;52.222;20.916;2024-01-30T04:57:09;101823.13;;;1.00;100.00
21779;BME280;11050;52.222;20.916;2024-01-30T04:59:37;101814.84;;;1.01;100.00
21779;BME280;11050;52.222;20.916;2024-01-30T05:02:03;101810.75;;;0.97;100.00
21779;BME280;11050;52.222;20.916;2024-01-30T05:04:29;101816.16;;;0.97;100.00
21779;BME280;11050;52.222;20.916;2024-01-30T05:06:55;101815.72;;;1.02;100.00
21779;BME280;11050;52.222;20.916;2024-01-30T05:09:20;101819.13;;;1.04;100.00
21779;BME280;11050;52.222;20.916;2024-01-30T05:11:46;101813.13;;;1.00;100.00
21779;BME280;11050;52.222;20.916;2024-01-30T05:14:12;101822.13;;;1.01;100.00
21779;BME280;11050;52.222;20.916;2024-01-30T05:16:40;101816.53;;;1.02;100.00
21779;BME280;11050;52.222;20.916;2024-01-30T05:19:07;101818.41;;;1.02;100.00
21779;BME280;11050;52.222;20.916;2024-01-30T05:21:32;101812.84;;;1.03;100.00
21779;BME280;11050;52.222;20.916;2024-01-30T05:23:58;101804.72;;;1.03;100.00
21779;BME280;11050;52.222;20.916;2024-01-30T05:26:24;101805.44;;;1.05;100.00
21779;BME280;11050;52.222;20.916;2024-01-30T05:28:50;101819.66;;;1.07;100.00
21779;BME280;11050;52.222;20.916;2024-01-30T05:31:15;101815.22;;;1.06;100.00
21779;BME280;11050;52.222;20.916;2024-01-30T05:33:41;101817.41;;;1.03;100.00
21779;BME280;11050;52.222;20.916;2024-01-30T05:36:07;101812.53;;;1.06;100.00
21779;BME280;11050;52.222;20.916;2024-01-30T05:38:33;101810.69;;;1.07;100.00
21779;BME280;11050;52.222;20.916;2024-01-30T05:40:59;101820.66;;;1.06;100.00
21779;BME280;11050;52.222;20.916;2024-01-30T05:43:25;101827.06;;;1.05;100.00
21779;BME280;11050;52.222;20.916;2024-01-30T05:45:51;101819.81;;;1.06;100.00
21779;BME280;11050;52.222;20.916;2024-01-30T05:48:18;101830.94;;;1.03;100.00
21779;BME280;11050;52.222;20.916;2024-01-30T05:50:43;101817.03;;;0.98;100.00
21779;BME280;11050;52.222;20.916;2024-01-30T05:53:11;101822.81;;;1.03;100.00
21779;BME280;11050;52.222;20.916;2024-01-30T05:55:37;101819.41;;;1.01;100.00
21779;BME280;11050;52.222;20.916;2024-01-30T05:58:03;101806.38;;;0.96;100.00
21779;BME280;11050;52.222;20.916;2024-01-30T06:00:29;101818.88;;;0.97;100.00
21779;BME280;11050;52.222;20.916;2024-01-30T06:02:55;101818.72;;;0.98;100.00
21779;BME280;11050;52.222;20.916;2024-01-30T06:05:21;101814.16;;;0.99;100.00
21779;BME280;11050;52.222;20.916;2024-01-30T06:07:47;101822.13;;;1.01;100.00
21779;BME280;11050;52.222;20.916;2024-01-30T06:10:12;101814.69;;;1.03;100.00
21779;BME280;11050;52.222;20.916;2024-01-30T06:12:39;101812.00;;;1.03;100.00
21779;BME280;11050;52.222;20.916;2024-01-30T06:15:05;101810.13;;;1.03;100.00
21779;BME280;11050;52.222;20.916;2024-01-30T06:17:32;101813.72;;;1.04;100.00
21779;BME280;11050;52.222;20.916;2024-01-30T06:19:58;101805.44;;;1.05;100.00
21779;BME280;11050;52.222;20.916;2024-01-30T06:22:24;101815.06;;;1.08;100.00
21779;BME280;11050;52.222;20.916;2024-01-30T06:24:49;101818.78;;;1.07;100.00
21779;BME280;11050;52.222;20.916;2024-01-30T06:27:15;101809.28;;;1.03;100.00
21779;BME280;11050;52.222;20.916;2024-01-30T06:29:43;101820.66;;;1.06;100.00
21779;BME280;11050;52.222;20.916;2024-01-30T06:32:09;101832.50;;;1.05;100.00
21779;BME280;11050;52.222;20.916;2024-01-30T06:34:35;101817.94;;;1.06;100.00
21779;BME280;11050;52.222;20.916;2024-01-30T06:37:00;101822.19;;;1.09;100.00
21779;BME280;11050;52.222;20.916;2024-01-30T06:39:26;101824.44;;;1.13;100.00
21779;BME280;11050;52.222;20.916;2024-01-30T06:41:52;101825.81;;;1.17;100.00
21779;BME280;11050;52.222;20.916;2024-01-30T06:44:18;101828.84;;;1.14;100.00
21779;BME280;11050;52.222;20.916;2024-01-30T06:46:44;101826.38;;;1.21;100.00
21779;BME280;11050;52.222;20.916;2024-01-30T06:49:10;101824.91;;;1.26;100.00
21779;BME280;11050;52.222;20.916;2024-01-30T06:51:36;101827.97;;;1.31;100.00
21779;BME280;11050;52.222;20.916;2024-01-30T06:54:02;101830.00;;;1.29;100.00
21779;BME280;11050;52.222;20.916;2024-01-30T06:56:28;101828.69;;;1.33;100.00
21779;BME280;11050;52.222;20.916;2024-01-30T06:58:54;101824.16;;;1.42;100.00
21779;BME280;11050;52.222;20.916;2024-01-30T07:01:20;101823.88;;;1.45;100.00
21779;BME280;11050;52.222;20.916;2024-01-30T07:03:46;101826.06;;;1.49;100.00
21779;BME280;11050;52.222;20.916;2024-01-30T07:06:12;101822.22;;;1.52;100.00
21779;BME280;11050;52.222;20.916;2024-01-30T07:08:38;101818.72;;;1.59;100.00
21779;BME280;11050;52.222;20.916;2024-01-30T07:11:07;101823.97;;;1.61;100.00
21779;BME280;11050;52.222;20.916;2024-01-30T07:13:34;101824.19;;;1.67;100.00
21779;BME280;11050;52.222;20.916;2024-01-30T07:16:01;101826.28;;;1.73;100.00
21779;BME280;11050;52.222;20.916;2024-01-30T07:18:26;101832.06;;;1.78;100.00
21779;BME280;11050;52.222;20.916;2024-01-30T07:20:52;101835.13;;;1.83;100.00
21779;BME280;11050;52.222;20.916;2024-01-30T07:23:18;101836.56;;;1.96;100.00
21779;BME280;11050;52.222;20.916;2024-01-30T07:25:44;101832.72;;;2.06;100.00
21779;BME280;11050;52.222;20.916;2024-01-30T07:28:10;101835.31;;;2.16;100.00
21779;BME280;11050;52.222;20.916;2024-01-30T07:30:38;101825.19;;;2.26;100.00
21779;BME280;11050;52.222;20.916;2024-01-30T07:33:04;101838.47;;;2.37;100.00
21779;BME280;11050;52.222;20.916;2024-01-30T07:35:30;101835.94;;;2.43;100.00
21779;BME280;11050;52.222;20.916;2024-01-30T07:37:56;101832.41;;;2.51;100.00
21779;BME280;11050;52.222;20.916;2024-01-30T07:40:23;101831.06;;;2.55;100.00
21779;BME280;11050;52.222;20.916;2024-01-30T07:42:49;101842.28;;;2.60;100.00
21779;BME280;11050;52.222;20.916;2024-01-30T07:45:15;101835.84;;;2.69;100.00
21779;BME280;11050;52.222;20.916;2024-01-30T07:47:41;101830.25;;;2.70;100.00
21779;BME280;11050;52.222;20.916;2024-01-30T07:50:08;101839.44;;;2.77;100.00
21779;BME280;11050;52.222;20.916;2024-01-30T07:52:34;101835.19;;;2.83;100.00
21779;BME280;11050;52.222;20.916;2024-01-30T07:55:00;101836.25;;;2.90;100.00
21779;BME280;11050;52.222;20.916;2024-01-30T07:57:26;101829.47;;;2.94;100.00
21779;BME280;11050;52.222;20.916;2024-01-30T07:59:52;101831.53;;;3.08;100.00
21779;BME280;11050;52.222;20.916;2024-01-30T08:02:17;101832.41;;;3.17;100.00
21779;BME280;11050;52.222;20.916;2024-01-30T08:04:43;101833.72;;;3.21;100.00
21779;BME280;11050;52.222;20.916;2024-01-30T08:07:14;101829.00;;;3.31;100.00
21779;BME280;11050;52.222;20.916;2024-01-30T08:09:40;101827.13;;;3.31;100.00
21779;BME280;11050;52.222;20.916;2024-01-30T08:12:06;101830.19;;;3.36;100.00
21779;BME280;11050;52.222;20.916;2024-01-30T08:14:31;101832.22;;;3.42;100.00
21779;BME280;11050;52.222;20.916;2024-01-30T08:16:57;101831.38;;;3.50;100.00
21779;BME280;11050;52.222;20.916;2024-01-30T08:19:23;101833.91;;;3.59;100.00
21779;BME280;11050;52.222;20.916;2024-01-30T08:21:49;101818.09;;;3.63;100.00
21779;BME280;11050;52.222;20.916;2024-01-30T08:24:14;101818.41;;;3.76;100.00
21779;BME280;11050;52.222;20.916;2024-01-30T08:26:40;101827.75;;;3.81;100.00
21779;BME280;11050;52.222;20.916;2024-01-30T08:29:06;101813.28;;;3.89;100.00
21779;BME280;11050;52.222;20.916;2024-01-30T08:31:31;101814.63;;;4.01;100.00
21779;BME280;11050;52.222;20.916;2024-01-30T08:33:57;101822.59;;;4.11;100.00
21779;BME280;11050;52.222;20.916;2024-01-30T08:36:23;101820.00;;;4.17;100.00
21779;BME280;11050;52.222;20.916;2024-01-30T08:38:49;101807.75;;;4.21;99.57
21779;BME280;11050;52.222;20.916;2024-01-30T08:41:14;101810.28;;;4.23;99.46
21779;BME280;11050;52.222;20.916;2024-01-30T08:43:40;101819.47;;;4.30;98.26
21779;BME280;11050;52.222;20.916;2024-01-30T08:46:06;101815.69;;;4.39;97.94
21779;BME280;11050;52.222;20.916;2024-01-30T08:48:32;101823.56;;;4.56;97.86
21779;BME280;11050;52.222;20.916;2024-01-30T08:50:58;101820.81;;;4.64;96.09
21779;BME280;11050;52.222;20.916;2024-01-30T08:53:23;101828.25;;;4.78;95.15
21779;BME280;11050;52.222;20.916;2024-01-30T08:55:50;101825.34;;;4.80;93.72
21779;BME280;11050;52.222;20.916;2024-01-30T08:58:16;101827.78;;;4.98;93.78
21779;BME280;11050;52.222;20.916;2024-01-30T09:00:44;101824.25;;;5.12;93.61
21779;BME280;11050;52.222;20.916;2024-01-30T09:03:10;101821.78;;;5.25;93.04
21779;BME280;11050;52.222;20.916;2024-01-30T09:05:36;101814.75;;;5.30;89.96
21779;BME280;11050;52.222;20.916;2024-01-30T09:08:02;101822.88;;;5.38;89.41
21779;BME280;11050;52.222;20.916;2024-01-30T09:10:27;101831.53;;;5.42;88.31
21779;BME280;11050;52.222;20.916;2024-01-30T09:12:53;101824.81;;;5.52;88.43
21779;BME280;11050;52.222;20.916;2024-01-30T09:15:19;101816.00;;;5.65;88.49
21779;BME280;11050;52.222;20.916;2024-01-30T09:17:45;101819.47;;;5.73;86.91
21779;BME280;11050;52.222;20.916;2024-01-30T09:20:11;101812.94;;;5.83;86.75
21779;BME280;11050;52.222;20.916;2024-01-30T09:22:37;101823.09;;;5.89;84.51
21779;BME280;11050;52.222;20.916;2024-01-30T09:25:03;101816.81;;;5.88;83.29
21779;BME280;11050;52.222;20.916;2024-01-30T09:27:28;101812.78;;;5.99;83.27
21779;BME280;11050;52.222;20.916;2024-01-30T09:29:54;101820.75;;;6.15;82.46
21779;BME280;11050;52.222;20.916;2024-01-30T09:32:20;101816.34;;;6.28;81.93
21779;BME280;11050;52.222;20.916;2024-01-30T09:34:46;101805.44;;;6.28;79.58
21779;BME280;11050;52.222;20.916;2024-01-30T09:37:11;101812.78;;;6.28;79.52
21779;BME280;11050;52.222;20.916;2024-01-30T09:39:37;101808.25;;;6.35;78.83
21779;BME280;11050;52.222;20.916;2024-01-30T09:42:17;101804.47;;;6.36;78.41
21779;BME280;11050;52.222;20.916;2024-01-30T09:44:50;101806.72;;;6.47;77.43
21779;BME280;11050;52.222;20.916;2024-01-30T09:47:17;101807.28;;;6.57;77.36
21779;BME280;11050;52.222;20.916;2024-01-30T09:49:44;101803.19;;;6.67;76.45
21779;BME280;11050;52.222;20.916;2024-01-30T09:52:10;101802.63;;;6.72;76.00
21779;BME280;11050;52.222;20.916;2024-01-30T09:54:37;101798.06;;;6.79;75.78
21779;BME280;11050;52.222;20.916;2024-01-30T09:57:04;101800.84;;;7.00;75.42
21779;BME280;11050;52.222;20.916;2024-01-30T09:59:31;101796.69;;;7.04;73.45
21779;BME280;11050;52.222;20.916;2024-01-30T10:01:57;101794.94;;;7.18;73.53
21779;BME280;11050;52.222;20.916;2024-01-30T10:04:23;101801.75;;;7.28;72.37
21779;BME280;11050;52.222;20.916;2024-01-30T10:06:50;101798.31;;;7.41;70.14
21779;BME280;11050;52.222;20.916;2024-01-30T10:09:16;101793.75;;;7.48;69.81
21779;BME280;11050;52.222;20.916;2024-01-30T10:11:42;101798.88;;;7.57;69.26
21779;BME280;11050;52.222;20.916;2024-01-30T10:14:08;101787.97;;;7.64;69.28
21779;BME280;11050;52.222;20.916;2024-01-30T10:16:37;101784.50;;;7.77;68.89
21779;BME280;11050;52.222;20.916;2024-01-30T10:19:02;101786.28;;;7.91;68.19
21779;BME280;11050;52.222;20.916;2024-01-30T10:21:30;101784.47;;;8.04;67.48
21779;BME280;11050;52.222;20.916;2024-01-30T10:23:56;101785.78;;;8.08;66.85
21779;BME280;11050;52.222;20.916;2024-01-30T10:26:22;101776.56;;;8.22;66.26
21779;BME280;11050;52.222;20.916;2024-01-30T10:28:48;101774.34;;;8.32;65.02
21779;BME280;11050;52.222;20.916;2024-01-30T10:31:18;101770.38;;;8.41;64.29
21779;BME280;11050;52.222;20.916;2024-01-30T10:33:44;101770.16;;;8.43;63.86
21779;BME280;11050;52.222;20.916;2024-01-30T10:36:14;101760.91;;;8.44;63.27
21779;BME280;11050;52.222;20.916;2024-01-30T10:38:43;101758.19;;;8.50;62.94
21779;BME280;11050;52.222;20.916;2024-01-30T10:41:15;101761.81;;;8.64;62.57
21779;BME280;11050;52.222;20.916;2024-01-30T10:43:58;101754.06;;;8.74;61.26
21779;BME280;11050;52.222;20.916;2024-01-30T10:46:31;101754.72;;;8.76;60.92
21779;BME280;11050;52.222;20.916;2024-01-30T10:48:58;101751.78;;;8.84;60.59
21779;BME280;11050;52.222;20.916;2024-01-30T10:51:27;101744.22;;;8.99;61.47
21779;BME280;11050;52.222;20.916;2024-01-30T10:53:53;101746.13;;;9.12;59.49
21779;BME280;11050;52.222;20.916;2024-01-30T10:56:23;101747.63;;;9.14;58.92
21779;BME280;11050;52.222;20.916;2024-01-30T10:58:51;101739.81;;;9.24;58.31
21779;BME280;11050;52.222;20.916;2024-01-30T11:01:22;101733.50;;;9.37;57.64
21779;BME280;11050;52.222;20.916;2024-01-30T11:03:52;101734.13;;;9.45;56.84
21779;BME280;11050;52.222;20.916;2024-01-30T11:06:25;101732.81;;;9.68;57.51
21779;BME280;11050;52.222;20.916;2024-01-30T11:09:05;101738.25;;;10.00;54.84
21779;BME280;11050;52.222;20.916;2024-01-30T11:11:55;101730.00;;;10.13;53.98
21779;BME280;11050;52.222;20.916;2024-01-30T11:14:32;101729.50;;;10.42;52.47
21779;BME280;11050;52.222;20.916;2024-01-30T11:16:59;101729.94;;;10.77;52.21
21779;BME280;11050;52.222;20.916;2024-01-30T11:19:26;101725.09;;;11.04;50.54
21779;BME280;11050;52.222;20.916;2024-01-30T11:21:55;101720.66;;;11.34;48.81
21779;BME280;11050;52.222;20.916;2024-01-30T11:24:23;101720.41;;;11.60;47.07
21779;BME280;11050;52.222;20.916;2024-01-30T11:26:56;101715.97;;;11.84;46.60
21779;BME280;11050;52.222;20.916;2024-01-30T11:29:27;101717.06;;;12.19;45.42
21779;BME280;11050;52.222;20.916;2024-01-30T11:31:55;101706.19;;;12.42;44.68
21779;BME280;11050;52.222;20.916;2024-01-30T11:34:21;101701.78;;;12.82;43.88
21779;BME280;11050;52.222;20.916;2024-01-30T11:36:58;101706.59;;;13.16;42.19
21779;BME280;11050;52.222;20.916;2024-01-30T11:39:26;101696.22;;;13.42;41.43
21779;BME280;11050;52.222;20.916;2024-01-30T11:41:55;101692.38;;;13.77;40.96
21779;BME280;11050;52.222;20.916;2024-01-30T11:44:21;101687.91;;;13.99;39.32
21779;BME280;11050;52.222;20.916;2024-01-30T11:46:52;101683.91;;;14.18;38.99
21779;BME280;11050;52.222;20.916;2024-01-30T11:49:18;101687.97;;;14.16;38.50
21779;BME280;11050;52.222;20.916;2024-01-30T11:51:48;101685.44;;;14.26;38.05
21779;BME280;11050;52.222;20.916;2024-01-30T11:54:18;101680.81;;;14.55;37.59
21779;BME280;11050;52.222;20.916;2024-01-30T11:56:44;101678.97;;;14.88;36.76
21779;BME280;11050;52.222;20.916;2024-01-30T11:59:09;101672.47;;;15.11;36.38
21779;BME280;11050;52.222;20.916;2024-01-30T12:01:36;101669.28;;;15.36;36.36
21779;BME280;11050;52.222;20.916;2024-01-30T12:04:02;101683.38;;;15.67;34.87
21779;BME280;11050;52.222;20.916;2024-01-30T12:06:29;101675.59;;;15.64;34.51
21779;BME280;11050;52.222;20.916;2024-01-30T12:09:03;101671.28;;;15.73;34.84
21779;BME280;11050;52.222;20.916;2024-01-30T12:11:53;101676.19;;;16.04;34.81
21779;BME280;11050;52.222;20.916;2024-01-30T12:14:19;101666.19;;;16.47;34.22
21779;BME280;11050;52.222;20.916;2024-01-30T12:16:48;101666.06;;;16.58;34.03
21779;BME280;11050;52.222;20.916;2024-01-30T12:19:24;101671.38;;;16.86;33.13
21779;BME280;11050;52.222;20.916;2024-01-30T12:21:59;101676.22;;;17.28;33.30
21779;BME280;11050;52.222;20.916;2024-01-30T12:24:28;101675.09;;;17.55;32.13
21779;BME280;11050;52.222;20.916;2024-01-30T12:26:58;101678.84;;;17.76;32.24
21779;BME280;11050;52.222;20.916;2024-01-30T12:29:24;101668.22;;;18.15;30.73
21779;BME280;11050;52.222;20.916;2024-01-30T12:31:53;101670.63;;;17.96;30.81
21779;BME280;11050;52.222;20.916;2024-01-30T12:34:20;101674.16;;;17.81;30.92
21779;BME280;11050;52.222;20.916;2024-01-30T12:36:49;101666.44;;;17.93;31.16
21779;BME280;11050;52.222;20.916;2024-01-30T12:39:15;101663.59;;;18.40;30.90
21779;BME280;11050;52.222;20.916;2024-01-30T12:41:41;101667.59;;;18.59;29.77